Terminal Aerodrome Forecast
Issued by NWS Albany, NY

Home | Current Version | Previous Version | Text Only | Print | Product List | Glossary On
Versions: 1 2 3 4 5 6 7 8 9 10 11 12 13 14 15 16 17 18 19 20 21 22 23 24 25 26
000
FTUS41 KALY 262000 AAA
TAFPOU
TAF AMD
KPOU 262050Z 2621/2718 01008G14KT 1 1/2SM -SN BR BKN007 OVC011
      TEMPO 2621/2624 1/2SM SN FG VV005
     FM270000 01012G16KT 1/2SM SN FG VV004
     FM270200 34010G15KT 2SM -SN BR OVC008
     FM270600 33008KT P6SM VCSH OVC020
     FM271000 33005KT P6SM OVC035=

USA.gov is the U.S. government's official web portal to all federal, state and local government web resources and services.